createdAt,value
2018-02-14T00:01:56.899Z,5.73
2018-02-14T00:04:25.916Z,5.77
2018-02-14T00:06:54.158Z,4.90
2018-02-14T00:09:23.232Z,4.80
2018-02-14T00:11:51.462Z,6.07
2018-02-14T00:14:19.777Z,5.10
2018-02-14T00:16:47.994Z,5.47
2018-02-14T00:19:16.258Z,5.33
2018-02-14T00:21:45.263Z,5.80
2018-02-14T00:24:13.518Z,4.87
2018-02-14T00:26:42.526Z,5.37
2018-02-14T00:29:10.866Z,4.73
2018-02-14T00:31:39.146Z,5.30
2018-02-14T00:34:08.155Z,5.03
2018-02-14T00:36:36.399Z,5.43
2018-02-14T00:39:04.710Z,5.40
2018-02-14T00:41:32.982Z,5.13
2018-02-14T00:44:01.223Z,5.67
2018-02-14T00:46:29.500Z,5.43
2018-02-14T00:48:57.769Z,6.30
2018-02-14T00:51:26.027Z,5.60
2018-02-14T00:53:54.303Z,5.87
2018-02-14T00:56:22.800Z,6.00
2018-02-14T00:58:51.055Z,5.60
2018-02-14T01:01:19.293Z,5.77
2018-02-14T01:03:47.550Z,6.07
2018-02-14T01:06:16.595Z,6.57
2018-02-14T01:08:44.852Z,5.73
2018-02-14T01:11:13.100Z,6.30
2018-02-14T01:13:41.359Z,5.93
2018-02-14T01:16:10.385Z,6.47
2018-02-14T01:18:38.667Z,6.77
2018-02-14T01:21:06.954Z,7.57
2018-02-14T01:23:35.211Z,7.33
2018-02-14T01:26:03.450Z,7.87
2018-02-14T01:28:32.541Z,8.33
2018-02-14T01:31:00.774Z,8.40
2018-02-14T01:33:29.034Z,8.43
2018-02-14T01:35:57.458Z,9.70
2018-02-14T01:38:25.670Z,8.00
2018-02-14T01:40:53.938Z,9.13
2018-02-14T01:43:22.211Z,10.10
2018-02-14T01:45:50.479Z,9.50
2018-02-14T01:48:18.772Z,8.53
2018-02-14T01:50:47.019Z,10.00
2018-02-14T01:53:16.059Z,9.93
2018-02-14T01:55:44.452Z,8.93
2018-02-14T01:58:12.852Z,9.07
2018-02-14T02:00:41.106Z,9.63
2018-02-14T02:03:10.938Z,8.43
2018-02-14T02:05:39.169Z,9.87
2018-02-14T02:08:07.427Z,8.23
2018-02-14T02:10:35.786Z,9.40
2018-02-14T02:13:04.119Z,9.63
2018-02-14T02:15:32.370Z,10.00
2018-02-14T02:18:00.707Z,9.80
2018-02-14T02:20:33.694Z,9.30
2018-02-14T02:23:02.731Z,8.10
2018-02-14T02:25:30.983Z,9.23
2018-02-14T02:27:59.223Z,6.63
2018-02-14T02:30:28.252Z,7.60
2018-02-14T02:32:56.583Z,7.27
2018-02-14T02:35:24.859Z,8.00
2018-02-14T02:37:53.164Z,7.13
2018-02-14T02:40:31.202Z,7.10
2018-02-14T02:42:59.439Z,6.63
2018-02-14T02:45:27.713Z,6.37
2018-02-14T02:47:56.719Z,6.83
2018-02-14T02:50:25.043Z,7.57
2018-02-14T02:52:54.119Z,7.23
2018-02-14T02:55:22.399Z,6.33
2018-02-14T02:57:50.651Z,8.33
2018-02-14T03:00:18.923Z,7.00
2018-02-14T03:02:47.212Z,7.63
2018-02-14T03:05:15.498Z,7.67
2018-02-14T03:07:43.758Z,7.47
2018-02-14T03:10:12.113Z,7.17
2018-02-14T03:12:40.354Z,7.17
2018-02-14T03:15:08.593Z,7.63
2018-02-14T03:17:36.854Z,7.93
2018-02-14T03:20:05.119Z,7.63
2018-02-14T03:22:33.386Z,7.87
2018-02-14T03:25:01.673Z,7.53
2018-02-14T03:27:29.975Z,7.30
2018-02-14T03:29:58.218Z,6.70
2018-02-14T03:32:26.490Z,7.43
2018-02-14T03:34:54.940Z,7.63
2018-02-14T03:37:23.358Z,7.27
2018-02-14T03:39:51.594Z,7.60
2018-02-14T03:42:20.627Z,7.30
2018-02-14T03:44:48.973Z,6.07
2018-02-14T03:47:17.244Z,6.47
2018-02-14T03:49:46.251Z,6.70
2018-02-14T03:52:14.786Z,7.03
2018-02-14T03:54:44.534Z,7.60
2018-02-14T03:57:12.838Z,7.90
2018-02-14T03:59:41.078Z,8.10
2018-02-14T04:02:09.366Z,6.97
2018-02-14T04:04:37.627Z,7.83
2018-02-14T04:07:06.638Z,7.50
2018-02-14T04:09:34.906Z,7.43
2018-02-14T04:12:03.256Z,7.80
2018-02-14T04:14:32.287Z,7.33
2018-02-14T04:17:00.543Z,7.83
2018-02-14T04:19:29.578Z,8.07
2018-02-14T04:21:57.825Z,8.30
2018-02-14T04:24:26.110Z,8.33
2018-02-14T04:26:54.370Z,8.27
2018-02-14T04:29:22.643Z,7.87
2018-02-14T04:31:50.895Z,7.67
2018-02-14T04:34:19.913Z,7.50
2018-02-14T04:36:48.146Z,7.93
2018-02-14T04:39:17.175Z,8.77
2018-02-14T04:41:45.429Z,8.50
2018-02-14T04:44:14.478Z,8.30
2018-02-14T04:46:42.830Z,8.90
2018-02-14T04:49:11.279Z,8.90
2018-02-14T04:51:40.360Z,8.20
2018-02-14T04:54:10.394Z,8.80
2018-02-14T04:56:39.421Z,8.93
2018-02-14T04:59:07.675Z,9.70
2018-02-14T05:01:35.978Z,9.67
2018-02-14T05:04:04.302Z,10.30
2018-02-14T05:06:32.579Z,10.73
2018-02-14T05:09:01.603Z,9.73
2018-02-14T05:11:29.866Z,10.23
2018-02-14T05:13:58.118Z,10.73
2018-02-14T05:16:28.083Z,10.27
2018-02-14T05:18:56.486Z,11.17
2018-02-14T05:21:24.791Z,10.67
2018-02-14T05:23:53.969Z,11.90
2018-02-14T05:26:22.247Z,12.17
2018-02-14T05:28:50.471Z,13.07
2018-02-14T05:31:18.906Z,13.27
2018-02-14T05:33:47.910Z,13.70
2018-02-14T05:36:16.179Z,14.80
2018-02-14T05:38:45.254Z,16.37
2018-02-14T05:41:14.311Z,15.03
2018-02-14T05:43:42.577Z,14.10
2018-02-14T05:46:10.826Z,15.63
2018-02-14T05:48:39.095Z,15.50
2018-02-14T05:51:07.350Z,15.63
2018-02-14T05:53:36.394Z,16.90
2018-02-14T05:56:04.666Z,16.23
2018-02-14T05:58:32.982Z,15.60
2018-02-14T06:01:01.242Z,14.00
2018-02-14T06:03:29.523Z,14.17
2018-02-14T06:05:57.814Z,14.33
2018-02-14T06:08:26.192Z,15.93
2018-02-14T06:10:54.426Z,15.70
2018-02-14T06:13:22.694Z,17.40
2018-02-14T06:15:50.959Z,15.33
2018-02-14T06:18:19.395Z,14.33
2018-02-14T06:20:47.839Z,12.20
2018-02-14T06:23:16.128Z,11.63
2018-02-14T06:25:44.423Z,10.90
2018-02-14T06:28:13.459Z,14.10
2018-02-14T06:30:41.735Z,16.73
2018-02-14T06:33:10.035Z,13.40
2018-02-14T06:35:38.314Z,12.53
2018-02-14T06:38:06.583Z,10.93
2018-02-14T06:40:35.066Z,12.83
2018-02-14T06:43:03.318Z,10.73
2018-02-14T06:45:31.587Z,11.80
2018-02-14T06:47:59.871Z,11.20
2018-02-14T06:50:28.166Z,11.80
2018-02-14T06:52:56.439Z,10.97
2018-02-14T06:55:24.689Z,13.37
2018-02-14T06:57:52.942Z,14.33
2018-02-14T07:00:21.217Z,15.03
2018-02-14T07:02:49.517Z,20.10
2018-02-14T07:05:17.795Z,19.93
2018-02-14T07:07:46.206Z,19.53
2018-02-14T07:10:14.475Z,20.43
2018-02-14T07:12:44.245Z,17.03
2018-02-14T07:15:12.506Z,16.77
2018-02-14T07:17:40.790Z,15.27
2018-02-14T07:20:09.246Z,14.90
2018-02-14T07:22:38.414Z,15.33
2018-02-14T07:25:06.625Z,14.50
2018-02-14T07:27:34.907Z,16.37
2018-02-14T07:30:03.167Z,16.43
2018-02-14T07:32:31.456Z,15.67
2018-02-14T07:34:59.742Z,14.00
2018-02-14T07:37:27.958Z,17.23
2018-02-14T07:39:58.596Z,18.10
2018-02-14T07:42:27.266Z,17.13
2018-02-14T07:44:55.533Z,18.23
2018-02-14T07:47:23.845Z,14.93
2018-02-14T07:49:52.094Z,15.63
2018-02-14T07:52:20.346Z,16.20
2018-02-14T07:54:48.714Z,14.20
2018-02-14T07:57:17.086Z,14.10
2018-02-14T07:59:45.350Z,14.47
2018-02-14T08:02:13.633Z,15.57
2018-02-14T08:04:41.918Z,13.90
2018-02-14T08:07:10.197Z,14.90
2018-02-14T08:09:38.467Z,14.07
2018-02-14T08:12:06.714Z,14.97
2018-02-14T08:14:35.141Z,14.20
2018-02-14T08:17:03.397Z,15.00
2018-02-14T08:19:31.653Z,13.40
2018-02-14T08:21:59.923Z,13.40
2018-02-14T08:24:28.273Z,13.00
2018-02-14T08:26:56.514Z,13.77
2018-02-14T08:29:24.783Z,14.70
2018-02-14T08:31:53.106Z,12.80
2018-02-14T08:34:22.182Z,14.63
2018-02-14T08:36:50.390Z,13.43
2018-02-14T08:39:18.646Z,11.10
2018-02-14T08:41:46.934Z,12.03
2018-02-14T08:44:15.968Z,12.63
2018-02-14T08:46:44.226Z,12.87
2018-02-14T08:49:12.490Z,12.53
2018-02-14T08:51:40.748Z,13.80
2018-02-14T08:54:09.771Z,10.97
2018-02-14T08:56:38.039Z,12.70
2018-02-14T08:59:06.294Z,10.90
2018-02-14T09:01:34.554Z,10.30
2018-02-14T09:04:03.566Z,14.47
2018-02-14T09:06:31.846Z,11.10
2018-02-14T09:09:00.114Z,12.27
2018-02-14T09:11:28.366Z,11.23
2018-02-14T09:13:56.792Z,10.47
2018-02-14T09:16:25.056Z,12.30
2018-02-14T09:18:53.366Z,12.67
2018-02-14T09:21:21.637Z,11.43
2018-02-14T09:23:50.077Z,12.73
2018-02-14T09:26:18.273Z,12.27
2018-02-14T09:28:46.534Z,11.90
2018-02-14T09:31:14.799Z,13.53
2018-02-14T09:33:43.082Z,11.23
2018-02-14T09:36:11.339Z,12.23
2018-02-14T09:38:39.641Z,13.67
2018-02-14T09:41:08.059Z,14.00
2018-02-14T09:43:37.899Z,12.47
2018-02-14T09:46:06.963Z,12.10
2018-02-14T09:48:35.214Z,12.00
2018-02-14T09:51:03.497Z,11.67
2018-02-14T09:53:31.911Z,13.00
2018-02-14T09:56:00.931Z,12.10
2018-02-14T09:58:29.189Z,10.40
2018-02-14T10:00:57.472Z,10.17
2018-02-14T10:03:25.739Z,12.73
2018-02-14T10:05:54.823Z,11.07
2018-02-14T10:08:23.058Z,13.50
2018-02-14T10:10:51.334Z,13.20
2018-02-14T10:13:19.566Z,12.63
2018-02-14T10:15:47.858Z,12.13
2018-02-14T10:18:16.135Z,10.77
2018-02-14T10:20:44.461Z,11.43
2018-02-14T10:23:12.907Z,11.73
2018-02-14T10:25:41.172Z,11.70
2018-02-14T10:28:09.466Z,12.70
2018-02-14T10:30:37.793Z,11.97
2018-02-14T10:33:06.907Z,12.50
2018-02-14T10:35:35.247Z,12.07
2018-02-14T10:38:03.536Z,11.13
2018-02-14T10:40:31.791Z,11.03
2018-02-14T10:43:00.047Z,12.57
2018-02-14T10:45:28.322Z,13.43
2018-02-14T10:47:56.662Z,11.87
2018-02-14T10:50:25.061Z,12.97
2018-02-14T10:52:53.375Z,12.73
2018-02-14T10:55:22.394Z,12.87
2018-02-14T10:57:50.706Z,11.37
2018-02-14T11:00:18.982Z,13.87
2018-02-14T11:02:47.243Z,11.37
2018-02-14T11:05:15.557Z,14.13
2018-02-14T11:07:44.651Z,11.27
2018-02-14T11:10:12.871Z,11.07
2018-02-14T11:12:41.119Z,10.87
2018-02-14T11:15:10.147Z,11.93
2018-02-14T11:17:38.406Z,10.50
2018-02-14T11:20:06.705Z,11.27
2018-02-14T11:22:35.067Z,12.17
2018-02-14T11:25:03.349Z,10.67
2018-02-14T11:27:31.633Z,9.27
2018-02-14T11:29:59.923Z,11.27
2018-02-14T11:32:28.162Z,8.67
2018-02-14T11:34:56.424Z,8.10
2018-02-14T11:37:24.687Z,10.27
2018-02-14T11:39:53.725Z,9.73
2018-02-14T11:42:22.050Z,8.07
2018-02-14T11:44:51.139Z,9.77
2018-02-14T11:47:19.541Z,9.43
2018-02-14T11:49:47.741Z,8.23
2018-02-14T11:52:15.990Z,8.90
2018-02-14T11:54:44.537Z,8.73
2018-02-14T11:57:12.755Z,9.80
2018-02-14T11:59:41.021Z,8.73
2018-02-14T12:02:09.282Z,8.87
2018-02-14T12:04:38.281Z,9.33
2018-02-14T12:07:06.671Z,9.70
2018-02-14T12:09:34.969Z,8.03
2018-02-14T12:12:03.211Z,7.13
2018-02-14T12:14:31.487Z,9.40
2018-02-14T12:16:59.734Z,8.97
2018-02-14T12:19:28.768Z,9.83
2018-02-14T12:21:56.998Z,7.93
2018-02-14T12:24:26.051Z,9.70
2018-02-14T12:26:54.329Z,9.40
2018-02-14T12:29:22.585Z,8.50
2018-02-14T12:31:50.848Z,8.17
2018-02-14T12:34:19.102Z,9.90
2018-02-14T12:36:48.230Z,8.00
2018-02-14T12:39:16.503Z,9.17
2018-02-14T12:41:44.779Z,9.10
2018-02-14T12:44:13.031Z,8.83
2018-02-14T12:46:42.043Z,7.40
2018-02-14T12:49:10.458Z,7.73
2018-02-14T12:51:40.227Z,8.13
2018-02-14T12:54:08.483Z,7.00
2018-02-14T12:56:37.553Z,8.10
2018-02-14T12:59:05.794Z,8.67
2018-02-14T13:01:34.051Z,7.57
2018-02-14T13:04:02.304Z,7.03
2018-02-14T13:06:31.302Z,7.00
2018-02-14T13:08:59.606Z,7.77
2018-02-14T13:11:27.846Z,8.17
2018-02-14T13:13:56.152Z,7.73
2018-02-14T13:16:24.391Z,8.77
2018-02-14T13:18:53.411Z,7.17
2018-02-14T13:21:21.698Z,8.80
2018-02-14T13:23:50.028Z,8.80
2018-02-14T13:26:19.058Z,7.20
2018-02-14T13:28:47.373Z,7.57
2018-02-14T13:31:17.166Z,7.50
2018-02-14T13:33:45.446Z,8.43
2018-02-14T13:36:13.691Z,8.10
2018-02-14T13:38:41.942Z,7.37
2018-02-14T13:41:10.203Z,7.03
2018-02-14T13:43:39.201Z,6.90
2018-02-14T13:46:08.215Z,9.40
2018-02-14T13:48:36.458Z,7.20
2018-02-14T13:51:05.510Z,9.00
2018-02-14T13:53:33.747Z,7.43
2018-02-14T13:56:02.014Z,8.20
2018-02-14T13:58:30.270Z,8.77
2018-02-14T14:00:59.572Z,7.10
2018-02-14T14:03:27.786Z,6.80
2018-02-14T14:05:56.062Z,7.93
2018-02-14T14:08:24.322Z,7.80
2018-02-14T14:10:52.639Z,7.57
2018-02-14T14:13:21.729Z,6.43
2018-02-14T14:15:49.992Z,8.67
2018-02-14T14:18:18.284Z,7.50
2018-02-14T14:20:46.578Z,7.00
2018-02-14T14:23:14.827Z,6.50
2018-02-14T14:25:43.102Z,7.97
2018-02-14T14:28:11.354Z,8.47
2018-02-14T14:30:39.608Z,7.10
2018-02-14T14:33:07.872Z,8.47
2018-02-14T14:35:36.874Z,7.77
2018-02-14T14:38:05.157Z,7.50
2018-02-14T14:40:33.410Z,6.47
2018-02-14T14:43:02.488Z,7.00
2018-02-14T14:45:30.713Z,5.83
2018-02-14T14:47:58.991Z,6.63
2018-02-14T14:50:27.234Z,7.73
2018-02-14T14:52:55.521Z,6.57
2018-02-14T14:55:23.778Z,7.43
2018-02-14T14:57:52.851Z,7.77
2018-02-14T15:00:21.351Z,7.60
2018-02-14T15:02:49.556Z,7.80
2018-02-14T15:05:17.809Z,6.83
2018-02-14T15:07:46.819Z,7.00
2018-02-14T15:10:15.087Z,7.20
2018-02-14T15:12:43.424Z,6.80
2018-02-14T15:15:11.675Z,7.20
2018-02-14T15:17:39.958Z,6.40
2018-02-14T15:20:08.288Z,6.47
2018-02-14T15:22:36.527Z,7.00
2018-02-14T15:25:04.827Z,6.47
2018-02-14T15:27:33.831Z,6.37
2018-02-14T15:30:02.207Z,7.40
2018-02-14T15:32:30.448Z,5.50
2018-02-14T15:34:58.714Z,6.37
2018-02-14T15:37:26.974Z,6.87
2018-02-14T15:39:55.221Z,6.57
2018-02-14T15:42:23.502Z,5.23
2018-02-14T15:44:51.736Z,6.10
2018-02-14T15:47:20.766Z,6.57
2018-02-14T15:49:49.106Z,6.00
2018-02-14T15:52:17.375Z,6.67
2018-02-14T15:54:46.435Z,6.27
2018-02-14T15:57:14.683Z,6.30
2018-02-14T15:59:42.930Z,5.97
2018-02-14T16:02:11.227Z,6.67
2018-02-14T16:04:39.474Z,5.80
2018-02-14T16:07:07.736Z,6.30
2018-02-14T16:09:35.966Z,5.87
2018-02-14T16:12:04.232Z,5.70
2018-02-14T16:14:32.662Z,5.97
2018-02-14T16:17:01.603Z,5.77
2018-02-14T16:19:29.874Z,5.77
2018-02-14T16:21:58.150Z,5.57
2018-02-14T16:24:26.418Z,5.40
2018-02-14T16:26:54.691Z,5.00
2018-02-14T16:29:22.948Z,4.93
2018-02-14T16:31:51.154Z,4.57
2018-02-14T16:34:19.403Z,4.10
2018-02-14T16:36:47.641Z,5.37
2018-02-14T16:39:15.918Z,5.20
2018-02-14T16:41:44.211Z,5.53
2018-02-14T16:44:13.227Z,5.17
2018-02-14T16:46:41.470Z,5.80
2018-02-14T16:49:10.514Z,5.13
2018-02-14T16:51:38.778Z,5.37
2018-02-14T16:54:07.063Z,4.90
2018-02-14T16:56:35.559Z,4.93
2018-02-14T16:59:03.848Z,4.90
2018-02-14T17:01:32.986Z,4.23
2018-02-14T17:04:01.253Z,5.17
2018-02-14T17:06:29.525Z,4.50
2018-02-14T17:08:58.518Z,4.37
2018-02-14T17:11:26.832Z,5.43
2018-02-14T17:13:55.282Z,4.90
2018-02-14T17:16:23.561Z,5.53
2018-02-14T17:18:51.903Z,5.30
2018-02-14T17:21:20.179Z,5.90
2018-02-14T17:23:48.454Z,5.13
2018-02-14T17:26:16.699Z,5.37
2018-02-14T17:28:45.063Z,5.30
2018-02-14T17:31:14.082Z,5.03
2018-02-14T17:33:43.855Z,5.27
2018-02-14T17:36:12.105Z,6.27
2018-02-14T17:38:40.380Z,6.47
2018-02-14T17:41:09.456Z,5.10
2018-02-14T17:43:37.707Z,5.80
2018-02-14T17:46:05.981Z,5.53
2018-02-14T17:48:34.275Z,6.10
2018-02-14T17:51:03.290Z,6.70
2018-02-14T17:53:31.559Z,5.57
2018-02-14T17:56:00.573Z,7.22
2018-02-14T17:58:29.760Z,7.43
2018-02-14T18:00:58.050Z,7.50
2018-02-14T18:03:26.357Z,6.40
2018-02-14T18:05:54.649Z,7.83
2018-02-14T18:08:22.988Z,6.73
2018-02-14T18:10:51.256Z,7.20
2018-02-14T18:13:19.574Z,7.97
2018-02-14T18:15:47.822Z,7.93
2018-02-14T18:18:16.114Z,7.63
2018-02-14T18:20:44.416Z,6.53
2018-02-14T18:23:13.446Z,7.93
2018-02-14T18:25:41.976Z,8.47
2018-02-14T18:28:10.995Z,6.90
2018-02-14T18:30:39.314Z,7.10
2018-02-14T18:33:07.583Z,6.60
2018-02-14T18:35:35.868Z,8.07
2018-02-14T18:38:04.159Z,6.87
2018-02-14T18:40:32.491Z,7.30
2018-02-14T18:43:00.747Z,8.00
2018-02-14T18:45:29.758Z,7.50
2018-02-14T18:47:58.044Z,7.07
2018-02-14T18:50:26.282Z,9.07
2018-02-14T18:52:55.314Z,8.00
2018-02-14T18:55:23.746Z,8.17
2018-02-14T18:57:52.811Z,8.57
2018-02-14T19:00:21.068Z,7.87
2018-02-14T19:02:49.353Z,7.17
2018-02-14T19:05:17.602Z,9.23
2018-02-14T19:07:45.888Z,8.30
2018-02-14T19:10:14.225Z,7.13
2018-02-14T19:12:42.504Z,7.77
2018-02-14T19:15:10.953Z,8.27
2018-02-14T19:17:39.996Z,10.43
2018-02-14T19:20:09.120Z,9.53
2018-02-14T19:22:37.395Z,9.20
2018-02-14T19:25:05.672Z,9.23
2018-02-14T19:27:34.730Z,7.90
2018-02-14T19:30:03.019Z,9.20
2018-02-14T19:32:32.167Z,7.03
2018-02-14T19:35:01.256Z,7.30
2018-02-14T19:37:29.502Z,8.27
2018-02-14T19:39:57.921Z,7.67
2018-02-14T19:42:26.941Z,9.07
2018-02-14T19:44:55.209Z,9.77
2018-02-14T19:47:23.462Z,8.23
2018-02-14T19:49:52.491Z,7.87
2018-02-14T19:52:20.738Z,7.30
2018-02-14T19:54:49.141Z,7.77
2018-02-14T19:57:17.671Z,8.30
2018-02-14T19:59:46.122Z,7.57
2018-02-14T20:02:14.343Z,6.40
2018-02-14T20:04:42.629Z,8.87
2018-02-14T20:07:10.872Z,6.97
2018-02-14T20:09:39.930Z,7.63
2018-02-14T20:12:08.150Z,6.97
2018-02-14T20:14:37.203Z,7.03
2018-02-14T20:17:05.490Z,7.90
2018-02-14T20:19:33.781Z,7.50
2018-02-14T20:22:02.168Z,7.80
2018-02-14T20:24:30.396Z,8.67
2018-02-14T20:26:58.658Z,8.03
2018-02-14T20:29:26.902Z,8.30
2018-02-14T20:31:55.175Z,9.00
2018-02-14T20:34:23.460Z,7.57
2018-02-14T20:36:51.723Z,9.10
2018-02-14T20:39:20.018Z,8.63
2018-02-14T20:41:48.386Z,7.27
2018-02-14T20:44:16.654Z,7.73
2018-02-14T20:46:45.706Z,7.60
2018-02-14T20:49:13.982Z,9.50
2018-02-14T20:51:42.365Z,8.70
2018-02-14T20:54:10.917Z,9.27
2018-02-14T20:56:39.214Z,10.37
2018-02-14T20:59:07.640Z,8.73
2018-02-14T21:01:35.999Z,9.67
2018-02-14T21:04:04.245Z,9.37
2018-02-14T21:06:33.366Z,11.47
2018-02-14T21:09:01.725Z,10.70
2018-02-14T21:11:30.052Z,11.00
2018-02-14T21:13:58.308Z,12.33
2018-02-14T21:16:26.570Z,13.00
2018-02-14T21:18:55.749Z,8.63
2018-02-14T21:21:24.138Z,8.93
2018-02-14T21:23:53.177Z,10.00
2018-02-14T21:26:21.420Z,9.27
2018-02-14T21:28:50.484Z,11.70
2018-02-14T21:31:18.762Z,11.77
2018-02-14T21:33:47.028Z,10.73
2018-02-14T21:36:15.418Z,8.87
2018-02-14T21:38:43.652Z,11.07
2018-02-14T21:41:11.994Z,9.93
2018-02-14T21:43:42.883Z,9.47
2018-02-14T21:46:11.178Z,9.37
2018-02-14T21:48:40.228Z,9.70
2018-02-14T21:51:08.479Z,10.57
2018-02-14T21:53:36.734Z,10.00
2018-02-14T21:56:05.767Z,10.00
2018-02-14T21:58:34.027Z,12.20
2018-02-14T22:01:02.362Z,11.10
2018-02-14T22:03:30.623Z,10.50
2018-02-14T22:05:58.886Z,10.27
2018-02-14T22:08:27.134Z,11.07
2018-02-14T22:10:55.567Z,11.70
2018-02-14T22:13:23.850Z,9.20
2018-02-14T22:15:52.876Z,11.33
2018-02-14T22:18:21.144Z,12.23
2018-02-14T22:20:49.402Z,11.33
2018-02-14T22:23:17.682Z,9.57
2018-02-14T22:25:45.970Z,12.43
2018-02-14T22:28:14.214Z,12.87
2018-02-14T22:30:43.239Z,11.80
2018-02-14T22:33:11.506Z,10.40
2018-02-14T22:35:39.793Z,11.23
2018-02-14T22:38:08.066Z,10.50
2018-02-14T22:40:36.332Z,12.53
2018-02-14T22:43:04.591Z,13.00
2018-02-14T22:45:33.599Z,10.50
2018-02-14T22:48:01.895Z,11.67
2018-02-14T22:50:30.154Z,12.80
2018-02-14T22:52:58.414Z,12.70
2018-02-14T22:55:26.670Z,10.83
2018-02-14T22:57:55.770Z,12.40
2018-02-14T23:00:24.791Z,11.43
2018-02-14T23:02:53.122Z,12.07
2018-02-14T23:05:21.368Z,13.03
2018-02-14T23:07:49.620Z,11.10
2018-02-14T23:10:17.982Z,11.27
2018-02-14T23:12:46.226Z,10.10
2018-02-14T23:15:14.497Z,10.40
2018-02-14T23:17:42.751Z,10.37
2018-02-14T23:20:11.062Z,11.80
2018-02-14T23:22:40.083Z,12.20
2018-02-14T23:25:08.350Z,11.90
2018-02-14T23:27:36.606Z,12.50
2018-02-14T23:30:05.635Z,10.70
2018-02-14T23:32:33.911Z,13.40
2018-02-14T23:35:02.145Z,10.97
2018-02-14T23:37:31.193Z,12.73
2018-02-14T23:39:59.694Z,11.57
2018-02-14T23:42:28.746Z,13.40
2018-02-14T23:44:57.006Z,11.27
2018-02-14T23:47:25.448Z,11.83
2018-02-14T23:49:53.663Z,11.23
2018-02-14T23:52:21.927Z,12.13
2018-02-14T23:54:50.192Z,10.77
2018-02-14T23:57:19.235Z,13.00
2018-02-14T23:59:47.483Z,12.23
